createdAt,value
2018-12-12T00:00:31.493Z,1017.35
2018-12-12T00:01:31.464Z,1017.38
2018-12-12T00:02:31.440Z,1017.36
2018-12-12T00:03:31.430Z,1017.34
2018-12-12T00:04:31.566Z,1017.36
2018-12-12T00:05:31.413Z,1017.36
2018-12-12T00:06:31.416Z,1017.36
2018-12-12T00:07:31.392Z,1017.39
2018-12-12T00:08:31.376Z,1017.40
2018-12-12T00:09:31.385Z,1017.37
2018-12-12T00:10:31.363Z,1017.34
2018-12-12T00:11:31.344Z,1017.37
2018-12-12T00:12:31.330Z,1017.35
2018-12-12T00:13:31.380Z,1017.35
2018-12-12T00:14:31.379Z,1017.35
2018-12-12T00:15:31.300Z,1017.38
2018-12-12T00:16:31.370Z,1017.33
2018-12-12T00:17:31.285Z,1017.36
2018-12-12T00:18:31.333Z,1017.27
2018-12-12T00:19:31.375Z,1017.34
2018-12-12T00:20:31.329Z,1017.32
2018-12-12T00:21:31.291Z,1017.28
2018-12-12T00:22:31.388Z,1017.30
2018-12-12T00:23:31.421Z,1017.29
2018-12-12T00:24:31.380Z,1017.26
2018-12-12T00:25:31.401Z,1017.27
2018-12-12T00:26:31.405Z,1017.27
2018-12-12T00:27:31.168Z,1017.24
2018-12-12T00:28:31.161Z,1017.28
2018-12-12T00:29:31.144Z,1017.29
2018-12-12T00:30:31.134Z,1017.29
2018-12-12T00:31:31.156Z,1017.31
2018-12-12T00:32:31.109Z,1017.29
2018-12-12T00:33:31.098Z,1017.34
2018-12-12T00:34:31.101Z,1017.33
2018-12-12T00:35:31.083Z,1017.40
2018-12-12T00:36:31.093Z,1017.41
2018-12-12T00:37:31.080Z,1017.41
2018-12-12T00:38:31.050Z,1017.44
2018-12-12T00:39:31.032Z,1017.40
2018-12-12T00:40:31.028Z,1017.45
2018-12-12T00:41:31.043Z,1017.42
2018-12-12T00:42:30.999Z,1017.41
2018-12-12T00:43:30.986Z,1017.44
2018-12-12T00:44:30.989Z,1017.46
2018-12-12T00:45:30.985Z,1017.44
2018-12-12T00:46:30.983Z,1017.47
2018-12-12T00:47:30.977Z,1017.47
2018-12-12T00:48:30.930Z,1017.46
2018-12-12T00:49:30.926Z,1017.46
2018-12-12T00:50:30.913Z,1017.45
2018-12-12T00:51:31.049Z,1017.47
2018-12-12T00:52:30.919Z,1017.52
2018-12-12T00:53:30.876Z,1017.49
2018-12-12T00:54:30.866Z,1017.45
2018-12-12T00:55:30.855Z,1017.49
2018-12-12T00:56:30.844Z,1017.47
2018-12-12T00:57:30.864Z,1017.44
2018-12-12T00:58:30.821Z,1017.49
2018-12-12T00:59:30.811Z,1017.50
2018-12-12T01:00:30.840Z,1017.44
2018-12-12T01:01:30.795Z,1017.45
2018-12-12T01:02:30.870Z,1017.46
2018-12-12T01:03:30.767Z,1017.43
2018-12-12T01:04:30.767Z,1017.41
2018-12-12T01:05:30.745Z,1017.42
2018-12-12T01:06:30.735Z,1017.38
2018-12-12T01:07:30.928Z,1017.38
2018-12-12T01:08:30.753Z,1017.36
2018-12-12T01:09:30.706Z,1017.37
2018-12-12T01:10:30.696Z,1017.37
2018-12-12T01:11:30.681Z,1017.39
2018-12-12T01:12:30.675Z,1017.42
2018-12-12T01:13:30.710Z,1017.43
2018-12-12T01:14:30.665Z,1017.45
2018-12-12T01:15:30.640Z,1017.44
2018-12-12T01:16:30.627Z,1017.47
2018-12-12T01:17:30.612Z,1017.48
2018-12-12T01:18:30.636Z,1017.55
2018-12-12T01:19:30.598Z,1017.48
2018-12-12T01:20:30.579Z,1017.51
2018-12-12T01:21:30.579Z,1017.52
2018-12-12T01:22:30.556Z,1017.49
2018-12-12T01:23:30.584Z,1017.46
2018-12-12T01:24:30.537Z,1017.51
2018-12-12T01:25:30.527Z,1017.46
2018-12-12T01:26:30.513Z,1017.47
2018-12-12T01:27:30.511Z,1017.47
2018-12-12T01:28:30.535Z,1017.54
2018-12-12T01:29:30.484Z,1017.50
2018-12-12T01:30:30.470Z,1017.54
2018-12-12T01:31:30.462Z,1017.56
2018-12-12T01:32:30.450Z,1017.59
2018-12-12T01:33:30.438Z,1017.57
2018-12-12T01:34:30.454Z,1017.60
2018-12-12T01:35:30.416Z,1017.59
2018-12-12T01:36:30.404Z,1017.57
2018-12-12T01:37:30.393Z,1017.54
2018-12-12T01:38:30.384Z,1017.55
2018-12-12T01:39:30.403Z,1017.56
2018-12-12T01:40:30.363Z,1017.58
2018-12-12T01:41:30.352Z,1017.60
2018-12-12T01:42:30.341Z,1017.58
2018-12-12T01:43:30.329Z,1017.58
2018-12-12T01:44:30.346Z,1017.62
2018-12-12T01:45:30.306Z,1017.61
2018-12-12T01:46:30.300Z,1017.58
2018-12-12T01:47:30.287Z,1017.62
2018-12-12T01:48:30.284Z,1017.65
2018-12-12T01:49:30.284Z,1017.64
2018-12-12T01:50:30.278Z,1017.61
2018-12-12T01:51:30.242Z,1017.62
2018-12-12T01:52:30.227Z,1017.64
2018-12-12T01:53:30.246Z,1017.60
2018-12-12T01:54:30.206Z,1017.61
2018-12-12T01:55:30.247Z,1017.59
2018-12-12T01:56:30.209Z,1017.54
2018-12-12T01:57:30.171Z,1017.59
2018-12-12T01:58:30.166Z,1017.58
2018-12-12T01:59:30.151Z,1017.59
2018-12-12T02:00:30.181Z,1017.56
2018-12-12T02:01:30.140Z,1017.57
2018-12-12T02:02:30.118Z,1017.51
2018-12-12T02:03:30.106Z,1017.52
2018-12-12T02:04:30.100Z,1017.52
2018-12-12T02:05:30.088Z,1017.55
2018-12-12T02:06:30.100Z,1017.57
2018-12-12T02:07:30.066Z,1017.61
2018-12-12T02:08:30.050Z,1017.59
2018-12-12T02:09:30.041Z,1017.61
2018-12-12T02:10:30.099Z,1017.64
2018-12-12T02:11:30.057Z,1017.65
2018-12-12T02:12:30.010Z,1017.67
2018-12-12T02:13:30.003Z,1017.69
2018-12-12T02:14:29.984Z,1017.64
2018-12-12T02:15:29.975Z,1017.65
2018-12-12T02:16:29.988Z,1017.67
2018-12-12T02:17:29.989Z,1017.68
2018-12-12T02:18:29.942Z,1017.72
2018-12-12T02:19:29.940Z,1017.76
2018-12-12T02:20:29.935Z,1017.77
2018-12-12T02:21:29.993Z,1017.79
2018-12-12T02:22:29.904Z,1017.82
2018-12-12T02:23:29.885Z,1017.84
2018-12-12T02:24:29.882Z,1017.83
2018-12-12T02:25:29.866Z,1017.87
2018-12-12T02:26:29.885Z,1017.87
2018-12-12T02:27:29.889Z,1017.87
2018-12-12T02:28:29.831Z,1017.92
2018-12-12T02:29:29.818Z,1017.88
2018-12-12T02:30:29.812Z,1017.89
2018-12-12T02:31:29.800Z,1017.89
2018-12-12T02:32:29.838Z,1017.92
2018-12-12T02:33:29.791Z,1017.95
2018-12-12T02:34:29.764Z,1017.94
2018-12-12T02:35:29.757Z,1017.96
2018-12-12T02:36:29.748Z,1017.96
2018-12-12T02:37:29.767Z,1017.94
2018-12-12T02:38:29.771Z,1017.96
2018-12-12T02:39:29.713Z,1017.95
2018-12-12T02:40:29.702Z,1017.88
2018-12-12T02:41:29.685Z,1017.86
2018-12-12T02:42:29.681Z,1017.85
2018-12-12T02:43:29.702Z,1017.84
2018-12-12T02:44:29.685Z,1017.81
2018-12-12T02:45:29.739Z,1017.82
2018-12-12T02:46:29.633Z,1017.81
2018-12-12T02:47:29.658Z,1017.80
2018-12-12T02:48:29.620Z,1017.79
2018-12-12T02:49:29.634Z,1017.77
2018-12-12T02:50:29.592Z,1017.82
2018-12-12T02:51:29.576Z,1017.79
2018-12-12T02:52:29.590Z,1017.83
2018-12-12T02:53:29.571Z,1017.79
2018-12-12T02:54:29.568Z,1017.81
2018-12-12T02:55:29.551Z,1017.82
2018-12-12T02:56:29.533Z,1017.81
2018-12-12T02:57:29.518Z,1017.83
2018-12-12T02:58:29.527Z,1017.83
2018-12-12T02:59:29.522Z,1017.88
2018-12-12T03:00:29.563Z,1017.86
2018-12-12T03:01:29.545Z,1017.90
2018-12-12T03:02:29.492Z,1017.88
2018-12-12T03:03:29.483Z,1017.90
2018-12-12T03:04:29.434Z,1017.89
2018-12-12T03:05:29.451Z,1017.90
2018-12-12T03:06:29.417Z,1017.93
2018-12-12T03:07:29.418Z,1017.91
2018-12-12T03:08:29.435Z,1017.91
2018-12-12T03:09:29.377Z,1017.94
2018-12-12T03:10:29.386Z,1017.96
2018-12-12T03:11:29.372Z,1017.97
2018-12-12T03:12:29.362Z,1017.98
2018-12-12T03:13:29.396Z,1017.97
2018-12-12T03:14:29.324Z,1017.99
2018-12-12T03:15:29.352Z,1018.03
2018-12-12T03:16:29.302Z,1017.99
2018-12-12T03:17:29.297Z,1018.03
2018-12-12T03:18:29.294Z,1018.04
2018-12-12T03:19:29.271Z,1018.03
2018-12-12T03:20:29.292Z,1018.04
2018-12-12T03:21:29.257Z,1018.07
2018-12-12T03:22:29.265Z,1018.07
2018-12-12T03:23:29.261Z,1018.11
2018-12-12T03:24:29.244Z,1018.14
2018-12-12T03:25:29.202Z,1018.15
2018-12-12T03:26:29.189Z,1018.17
2018-12-12T03:27:29.182Z,1018.19
2018-12-12T03:28:29.187Z,1018.23
2018-12-12T03:29:29.205Z,1018.25
2018-12-12T03:30:29.154Z,1018.23
2018-12-12T03:31:29.178Z,1018.25
2018-12-12T03:32:29.126Z,1018.25
2018-12-12T03:33:29.122Z,1018.20
2018-12-12T03:34:29.147Z,1018.23
2018-12-12T03:35:29.111Z,1018.18
2018-12-12T03:36:29.120Z,1018.14
2018-12-12T03:37:29.069Z,1018.16
2018-12-12T03:38:29.060Z,1018.19
2018-12-12T03:39:29.082Z,1018.14
2018-12-12T03:40:29.073Z,1018.14
2018-12-12T03:41:29.068Z,1018.15
2018-12-12T03:42:29.015Z,1018.12
2018-12-12T03:43:29.006Z,1018.12
2018-12-12T03:44:28.998Z,1018.11
2018-12-12T03:45:29.007Z,1018.11
2018-12-12T03:46:28.996Z,1018.11
2018-12-12T03:47:28.967Z,1018.10
2018-12-12T03:48:28.955Z,1018.11
2018-12-12T03:49:28.946Z,1018.11
2018-12-12T03:50:28.936Z,1018.13
2018-12-12T03:51:28.950Z,1018.11
2018-12-12T03:52:28.930Z,1018.14
2018-12-12T03:53:28.926Z,1018.13
2018-12-12T03:54:28.885Z,1018.13
2018-12-12T03:55:28.873Z,1018.16
2018-12-12T03:56:28.889Z,1018.13
2018-12-12T03:57:28.860Z,1018.12
2018-12-12T03:58:28.864Z,1018.13
2018-12-12T03:59:28.832Z,1018.12
2018-12-12T04:00:28.819Z,1018.11
2018-12-12T04:01:28.850Z,1018.15
2018-12-12T04:02:28.800Z,1018.08
2018-12-12T04:03:28.809Z,1018.08
2018-12-12T04:04:28.782Z,1018.10
2018-12-12T04:05:28.765Z,1018.12
2018-12-12T04:06:28.751Z,1018.07
2018-12-12T04:07:28.775Z,1018.08
2018-12-12T04:08:28.732Z,1018.10
2018-12-12T04:09:28.793Z,1018.10
2018-12-12T04:10:28.715Z,1018.13
2018-12-12T04:11:28.697Z,1018.11
2018-12-12T04:12:28.714Z,1018.09
2018-12-12T04:13:28.682Z,1018.07
2018-12-12T04:14:28.668Z,1018.16
2018-12-12T04:15:28.663Z,1018.11
2018-12-12T04:16:28.644Z,1018.13
2018-12-12T04:17:28.659Z,1018.07
2018-12-12T04:18:28.621Z,1018.11
2018-12-12T04:19:28.611Z,1018.08
2018-12-12T04:20:28.604Z,1018.08
2018-12-12T04:21:28.605Z,1018.04
2018-12-12T04:22:28.611Z,1018.05
2018-12-12T04:23:28.565Z,1018.02
2018-12-12T04:24:28.555Z,1018.05
2018-12-12T04:25:28.542Z,1018.02
2018-12-12T04:26:28.577Z,1018.08
2018-12-12T04:27:28.550Z,1018.07
2018-12-12T04:28:28.511Z,1018.12
2018-12-12T04:29:28.505Z,1018.12
2018-12-12T04:30:28.488Z,1018.13
2018-12-12T04:31:28.476Z,1018.15
2018-12-12T04:32:28.506Z,1018.19
2018-12-12T04:33:28.460Z,1018.14
2018-12-12T04:34:28.484Z,1018.19
2018-12-12T04:35:28.445Z,1018.15
2018-12-12T04:36:28.421Z,1018.15
2018-12-12T04:37:28.418Z,1018.11
2018-12-12T04:38:28.426Z,1018.18
2018-12-12T04:39:28.392Z,1018.23
2018-12-12T04:40:28.388Z,1018.21
2018-12-12T04:41:28.366Z,1018.19
2018-12-12T04:42:28.362Z,1018.20
2018-12-12T04:43:28.372Z,1018.19
2018-12-12T04:44:28.342Z,1018.23
2018-12-12T04:45:28.333Z,1018.22
2018-12-12T04:46:28.332Z,1018.19
2018-12-12T04:47:28.304Z,1018.19
2018-12-12T04:48:28.323Z,1018.23
2018-12-12T04:49:28.280Z,1018.23
2018-12-12T04:50:28.275Z,1018.21
2018-12-12T04:51:28.259Z,1018.22
2018-12-12T04:52:28.244Z,1018.21
2018-12-12T04:53:28.258Z,1018.22
2018-12-12T04:54:28.225Z,1018.18
2018-12-12T04:55:28.219Z,1018.16
2018-12-12T04:56:28.199Z,1018.18
2018-12-12T04:57:28.206Z,1018.18
2018-12-12T04:58:28.270Z,1018.16
2018-12-12T04:59:28.166Z,1018.15
2018-12-12T05:00:28.163Z,1018.13
2018-12-12T05:01:28.149Z,1018.11
2018-12-12T05:02:28.134Z,1018.12
2018-12-12T05:03:28.158Z,1018.08
2018-12-12T05:04:28.109Z,1018.06
2018-12-12T05:05:28.101Z,1018.07
2018-12-12T05:06:28.095Z,1018.05
2018-12-12T05:07:28.091Z,1018.03
2018-12-12T05:08:28.075Z,1018.08
2018-12-12T05:09:28.083Z,1018.06
2018-12-12T05:10:28.048Z,1018.11
2018-12-12T05:11:28.038Z,1018.08
2018-12-12T05:12:28.029Z,1018.07
2018-12-12T05:13:28.019Z,1018.10
2018-12-12T05:14:28.044Z,1018.09
2018-12-12T05:15:27.993Z,1018.10
2018-12-12T05:16:27.981Z,1018.13
2018-12-12T05:17:27.970Z,1018.13
2018-12-12T05:18:27.959Z,1018.18
2018-12-12T05:19:27.979Z,1018.20
2018-12-12T05:20:27.937Z,1018.22
2018-12-12T05:21:27.926Z,1018.25
2018-12-12T05:22:27.912Z,1018.26
2018-12-12T05:23:27.901Z,1018.31
2018-12-12T05:24:28.018Z,1018.29
2018-12-12T05:25:27.879Z,1018.30
2018-12-12T05:26:27.866Z,1018.37
2018-12-12T05:27:27.858Z,1018.37
2018-12-12T05:28:27.847Z,1018.34
2018-12-12T05:29:27.859Z,1018.38
2018-12-12T05:30:27.856Z,1018.38
2018-12-12T05:31:27.824Z,1018.39
2018-12-12T05:32:27.808Z,1018.37
2018-12-12T05:33:27.791Z,1018.41
2018-12-12T05:34:27.783Z,1018.40
2018-12-12T05:35:27.802Z,1018.42
2018-12-12T05:36:27.764Z,1018.41
2018-12-12T05:37:27.751Z,1018.39
2018-12-12T05:38:27.736Z,1018.40
2018-12-12T05:39:27.724Z,1018.40
2018-12-12T05:40:27.740Z,1018.40
2018-12-12T05:41:27.702Z,1018.40
2018-12-12T05:42:27.710Z,1018.39
2018-12-12T05:43:27.681Z,1018.36
2018-12-12T05:44:27.671Z,1018.39
2018-12-12T05:45:27.686Z,1018.41
2018-12-12T05:46:27.672Z,1018.38
2018-12-12T05:47:27.652Z,1018.36
2018-12-12T05:48:27.625Z,1018.38
2018-12-12T05:49:27.615Z,1018.39
2018-12-12T05:50:27.627Z,1018.43
2018-12-12T05:51:27.591Z,1018.41
2018-12-12T05:52:27.582Z,1018.38
2018-12-12T05:53:27.572Z,1018.44
2018-12-12T05:54:27.560Z,1018.41
2018-12-12T05:55:28.840Z,1018.40
2018-12-12T05:56:27.537Z,1018.41
2018-12-12T05:57:27.526Z,1018.45
2018-12-12T05:58:27.515Z,1018.43
2018-12-12T05:59:27.510Z,1018.42
2018-12-12T06:00:27.495Z,1018.46
2018-12-12T06:01:27.508Z,1018.48
2018-12-12T06:02:27.479Z,1018.50
2018-12-12T06:03:27.457Z,1018.53
2018-12-12T06:04:27.450Z,1018.51
2018-12-12T06:05:27.443Z,1018.53
2018-12-12T06:06:27.458Z,1018.61
2018-12-12T06:07:27.419Z,1018.57
2018-12-12T06:08:27.413Z,1018.59
2018-12-12T06:09:27.397Z,1018.63
2018-12-12T06:10:27.386Z,1018.61
2018-12-12T06:11:27.393Z,1018.61
2018-12-12T06:12:27.405Z,1018.61
2018-12-12T06:13:27.356Z,1018.66
2018-12-12T06:14:27.345Z,1018.65
2018-12-12T06:15:27.326Z,1018.71
2018-12-12T06:16:27.355Z,1018.68
2018-12-12T06:17:27.337Z,1018.61
2018-12-12T06:18:27.298Z,1018.61
2018-12-12T06:19:27.281Z,1018.63
2018-12-12T06:20:27.271Z,1018.64
2018-12-12T06:21:27.259Z,1018.66
2018-12-12T06:22:27.312Z,1018.61
2018-12-12T06:23:27.254Z,1018.60
2018-12-12T06:24:27.236Z,1018.55
2018-12-12T06:25:27.223Z,1018.55
2018-12-12T06:26:27.212Z,1018.58
2018-12-12T06:27:27.217Z,1018.59
2018-12-12T06:28:27.205Z,1018.63
2018-12-12T06:29:27.183Z,1018.58
2018-12-12T06:30:27.168Z,1018.56
2018-12-12T06:31:27.154Z,1018.58
2018-12-12T06:32:27.189Z,1018.59
2018-12-12T06:33:27.160Z,1018.60
2018-12-12T06:34:27.131Z,1018.65
2018-12-12T06:35:27.135Z,1018.60
2018-12-12T06:36:27.130Z,1018.63
2018-12-12T06:37:27.146Z,1018.60
2018-12-12T06:38:27.080Z,1018.63
2018-12-12T06:39:27.061Z,1018.67
2018-12-12T06:40:27.079Z,1018.66
2018-12-12T06:41:27.041Z,1018.65
2018-12-12T06:42:27.030Z,1018.64
2018-12-12T06:43:27.047Z,1018.65
2018-12-12T06:44:27.003Z,1018.65
2018-12-12T06:45:26.996Z,1018.71
2018-12-12T06:46:26.994Z,1018.77
2018-12-12T06:47:26.973Z,1018.71
2018-12-12T06:48:26.994Z,1018.73
2018-12-12T06:49:26.952Z,1018.71
2018-12-12T06:50:26.951Z,1018.72
2018-12-12T06:51:26.933Z,1018.74
2018-12-12T06:52:26.922Z,1018.74
2018-12-12T06:53:26.940Z,1018.73
2018-12-12T06:54:26.896Z,1018.72
2018-12-12T06:55:26.882Z,1018.72
2018-12-12T06:56:26.872Z,1018.79
2018-12-12T06:57:26.868Z,1018.78
2018-12-12T06:58:26.882Z,1018.75
2018-12-12T06:59:26.840Z,1018.81
2018-12-12T07:00:26.826Z,1018.82
2018-12-12T07:01:26.817Z,1018.79
2018-12-12T07:02:26.806Z,1018.77
2018-12-12T07:03:26.818Z,1018.77
2018-12-12T07:04:26.783Z,1018.79
2018-12-12T07:05:26.773Z,1018.76
2018-12-12T07:06:26.759Z,1018.79
2018-12-12T07:07:26.746Z,1018.77
2018-12-12T07:08:26.764Z,1018.78
2018-12-12T07:09:26.725Z,1018.78
2018-12-12T07:10:26.715Z,1018.82
2018-12-12T07:11:26.719Z,1018.85
2018-12-12T07:12:26.695Z,1018.84
2018-12-12T07:13:26.748Z,1018.84
2018-12-12T07:14:26.675Z,1018.85
2018-12-12T07:15:26.660Z,1018.88
2018-12-12T07:16:26.650Z,1018.86
2018-12-12T07:17:26.639Z,1018.88
2018-12-12T07:18:26.626Z,1018.90
2018-12-12T07:19:26.637Z,1018.87
2018-12-12T07:20:26.615Z,1018.88
2018-12-12T07:21:26.600Z,1018.85
2018-12-12T07:22:26.582Z,1018.87
2018-12-12T07:23:26.576Z,1018.90
2018-12-12T07:24:26.591Z,1018.84
2018-12-12T07:25:26.549Z,1018.89
2018-12-12T07:26:26.547Z,1018.86
2018-12-12T07:27:26.547Z,1018.87
2018-12-12T07:28:26.516Z,1018.89
2018-12-12T07:29:26.528Z,1018.90
2018-12-12T07:30:26.509Z,1018.89
2018-12-12T07:31:26.485Z,1018.91
2018-12-12T07:32:26.479Z,1018.93
2018-12-12T07:33:26.465Z,1018.93
2018-12-12T07:34:26.490Z,1018.97
2018-12-12T07:35:26.438Z,1018.94
2018-12-12T07:36:26.427Z,1018.96
2018-12-12T07:37:26.423Z,1018.95
2018-12-12T07:38:26.415Z,1018.93
2018-12-12T07:39:26.394Z,1018.98
2018-12-12T07:40:26.414Z,1018.98
2018-12-12T07:41:26.372Z,1018.95
2018-12-12T07:42:26.362Z,1018.99
2018-12-12T07:43:26.355Z,1018.97
2018-12-12T07:44:26.344Z,1019.01
2018-12-12T07:45:26.368Z,1019.02
2018-12-12T07:46:26.321Z,1019.02
2018-12-12T07:47:26.418Z,1019.02
2018-12-12T07:48:26.299Z,1019.03
2018-12-12T07:49:26.291Z,1019.09
2018-12-12T07:50:26.299Z,1019.09
2018-12-12T07:51:26.264Z,1019.08
2018-12-12T07:52:26.250Z,1019.14
2018-12-12T07:53:26.244Z,1019.15
2018-12-12T07:54:26.229Z,1019.16
2018-12-12T07:55:26.259Z,1019.17
2018-12-12T07:56:26.208Z,1019.18
2018-12-12T07:57:26.198Z,1019.16
2018-12-12T07:58:26.195Z,1019.17
2018-12-12T07:59:26.176Z,1019.15
2018-12-12T08:00:26.195Z,1019.18
2018-12-12T08:01:26.175Z,1019.17
2018-12-12T08:02:26.144Z,1019.15
2018-12-12T08:03:26.128Z,1019.15
2018-12-12T08:04:26.122Z,1019.16
2018-12-12T08:05:26.110Z,1019.17
2018-12-12T08:06:26.121Z,1019.18
2018-12-12T08:07:26.089Z,1019.19
2018-12-12T08:08:26.076Z,1019.15
2018-12-12T08:09:26.065Z,1019.20
2018-12-12T08:10:26.053Z,1019.24
2018-12-12T08:11:26.082Z,1019.25
2018-12-12T08:12:26.106Z,1019.23
2018-12-12T08:13:26.023Z,1019.27
2018-12-12T08:14:26.008Z,1019.29
2018-12-12T08:15:26.003Z,1019.30
2018-12-12T08:16:26.026Z,1019.32
2018-12-12T08:17:26.008Z,1019.33
2018-12-12T08:18:25.974Z,1019.33
2018-12-12T08:19:25.951Z,1019.31
2018-12-12T08:20:25.955Z,1019.30
2018-12-12T08:21:25.952Z,1019.35
2018-12-12T08:22:25.958Z,1019.33
2018-12-12T08:23:25.918Z,1019.35
2018-12-12T08:24:25.900Z,1019.36
2018-12-12T08:25:25.892Z,1019.30
2018-12-12T08:26:25.873Z,1019.31
2018-12-12T08:27:25.891Z,1019.34
2018-12-12T08:28:25.875Z,1019.31
2018-12-12T08:29:25.843Z,1019.29
2018-12-12T08:30:25.830Z,1019.32
2018-12-12T08:31:25.819Z,1019.33
2018-12-12T08:32:25.839Z,1019.30
2018-12-12T08:33:25.798Z,1019.33
2018-12-12T08:34:25.789Z,1019.33
2018-12-12T08:35:25.778Z,1019.34
2018-12-12T08:36:25.767Z,1019.33
2018-12-12T08:37:25.787Z,1019.32
2018-12-12T08:38:25.743Z,1019.33
2018-12-12T08:39:25.731Z,1019.35
2018-12-12T08:40:25.721Z,1019.32
2018-12-12T08:41:25.710Z,1019.36
2018-12-12T08:42:25.722Z,1019.32
2018-12-12T08:43:25.687Z,1019.35
2018-12-12T08:44:25.675Z,1019.35
2018-12-12T08:45:25.668Z,1019.33
2018-12-12T08:46:25.652Z,1019.34
2018-12-12T08:47:25.673Z,1019.34
2018-12-12T08:48:25.657Z,1019.41
2018-12-12T08:49:25.626Z,1019.43
2018-12-12T08:50:25.607Z,1019.43
2018-12-12T08:51:25.600Z,1019.43
2018-12-12T08:52:25.592Z,1019.40
2018-12-12T08:53:25.604Z,1019.39
2018-12-12T08:54:25.566Z,1019.39
2018-12-12T08:55:25.558Z,1019.40
2018-12-12T08:56:25.553Z,1019.42
2018-12-12T08:57:25.530Z,1019.40
2018-12-12T08:58:25.605Z,1019.42
2018-12-12T08:59:25.536Z,1019.43
2018-12-12T09:00:25.498Z,1019.44
2018-12-12T09:01:25.807Z,1019.46
2018-12-12T09:02:25.489Z,1019.49
2018-12-12T09:03:25.492Z,1019.51
2018-12-12T09:04:25.471Z,1019.52
2018-12-12T09:05:25.449Z,1019.47
2018-12-12T09:06:25.431Z,1019.51
2018-12-12T09:07:25.425Z,1019.45
2018-12-12T09:08:25.439Z,1019.47
2018-12-12T09:09:25.410Z,1019.51
2018-12-12T09:10:25.391Z,1019.48
2018-12-12T09:11:25.375Z,1019.43
2018-12-12T09:12:25.373Z,1019.48
2018-12-12T09:13:25.386Z,1019.48
2018-12-12T09:14:25.384Z,1019.49
2018-12-12T09:15:25.333Z,1019.46
2018-12-12T09:16:25.329Z,1019.48
2018-12-12T09:17:25.314Z,1019.49
2018-12-12T09:18:25.299Z,1019.49
2018-12-12T09:19:25.336Z,1019.55
2018-12-12T09:20:25.283Z,1019.57
2018-12-12T09:21:25.270Z,1019.56
2018-12-12T09:22:25.261Z,1019.56
2018-12-12T09:23:25.245Z,1019.57
2018-12-12T09:24:25.258Z,1019.58
2018-12-12T09:25:25.253Z,1019.60
2018-12-12T09:26:25.230Z,1019.61
2018-12-12T09:27:25.206Z,1019.57
2018-12-12T09:28:25.197Z,1019.61
2018-12-12T09:29:25.177Z,1019.62
2018-12-12T09:30:25.195Z,1019.62
2018-12-12T09:31:25.158Z,1019.59
2018-12-12T09:32:25.145Z,1019.64
2018-12-12T09:33:26.309Z,1019.66
2018-12-12T09:34:25.123Z,1019.67
2018-12-12T09:35:25.157Z,1019.66
2018-12-12T09:36:25.117Z,1019.69
2018-12-12T09:37:25.094Z,1019.67
2018-12-12T09:38:25.080Z,1019.72
2018-12-12T09:39:25.069Z,1019.71
2018-12-12T09:40:25.154Z,1019.74
2018-12-12T09:41:25.050Z,1019.71
2018-12-12T09:42:25.040Z,1019.73
2018-12-12T09:43:25.043Z,1019.69
2018-12-12T09:44:25.012Z,1019.65
2018-12-12T09:45:25.042Z,1019.73
2018-12-12T09:46:25.008Z,1019.73
2018-12-12T09:47:24.983Z,1019.64
2018-12-12T09:48:24.976Z,1019.63
2018-12-12T09:49:24.966Z,1019.64
2018-12-12T09:50:24.952Z,1019.62
2018-12-12T09:51:24.962Z,1019.65
2018-12-12T09:52:24.928Z,1019.72
2018-12-12T09:53:24.925Z,1019.71
2018-12-12T09:54:24.903Z,1019.66
2018-12-12T09:55:24.897Z,1019.66
2018-12-12T09:56:24.902Z,1019.72
2018-12-12T09:57:24.875Z,1019.67
2018-12-12T09:58:24.871Z,1019.64
2018-12-12T09:59:24.847Z,1019.62
2018-12-12T10:00:24.840Z,1019.62
2018-12-12T10:01:24.855Z,1019.65
2018-12-12T10:02:24.822Z,1019.62
2018-12-12T10:03:30.983Z,1019.65
2018-12-12T10:04:25.795Z,1019.65
2018-12-12T10:05:24.781Z,1019.65
2018-12-12T10:06:24.816Z,1019.68
2018-12-12T10:07:24.763Z,1019.68
2018-12-12T10:08:24.749Z,1019.70
2018-12-12T10:09:24.784Z,1019.69
2018-12-12T10:10:24.738Z,1019.74
2018-12-12T10:11:24.743Z,1019.74
2018-12-12T10:12:24.705Z,1019.74
2018-12-12T10:13:24.825Z,1019.69
2018-12-12T10:14:24.718Z,1019.72
2018-12-12T10:15:24.687Z,1019.71
2018-12-12T10:16:24.720Z,1019.71
2018-12-12T10:17:24.670Z,1019.74
2018-12-12T10:18:24.855Z,1019.74
2018-12-12T10:19:24.627Z,1019.74
2018-12-12T10:20:24.621Z,1019.74
2018-12-12T10:21:24.629Z,1019.75
2018-12-12T10:22:24.635Z,1019.70
2018-12-12T10:23:24.594Z,1019.73
2018-12-12T10:24:24.574Z,1019.71
2018-12-12T10:25:24.561Z,1019.71
2018-12-12T10:26:24.564Z,1019.73
2018-12-12T10:27:24.573Z,1019.69
2018-12-12T10:28:24.531Z,1019.71
2018-12-12T10:29:24.516Z,1019.72
2018-12-12T10:30:24.504Z,1019.74
2018-12-12T10:31:24.500Z,1019.71
2018-12-12T10:32:24.512Z,1019.66
2018-12-12T10:33:24.480Z,1019.69
2018-12-12T10:34:24.464Z,1019.67
2018-12-12T10:35:24.455Z,1019.63
2018-12-12T10:36:24.439Z,1019.68
2018-12-12T10:37:24.478Z,1019.59
2018-12-12T10:38:24.429Z,1019.56
2018-12-12T10:39:24.409Z,1019.52
2018-12-12T10:40:24.396Z,1019.54
2018-12-12T10:41:24.389Z,1019.58
2018-12-12T10:42:24.373Z,1019.55
2018-12-12T10:43:24.391Z,1019.58
2018-12-12T10:44:24.357Z,1019.59
2018-12-12T10:45:24.341Z,1019.61
2018-12-12T10:46:24.329Z,1019.58
2018-12-12T10:47:24.367Z,1019.61
2018-12-12T10:48:24.350Z,1019.58
2018-12-12T10:49:24.332Z,1019.55
2018-12-12T10:50:24.295Z,1019.54
2018-12-12T10:51:24.282Z,1019.57
2018-12-12T10:52:24.271Z,1019.51
2018-12-12T10:53:24.258Z,1019.52
2018-12-12T10:54:24.327Z,1019.51
2018-12-12T10:55:24.231Z,1019.49
2018-12-12T10:56:24.222Z,1019.52
2018-12-12T10:57:24.218Z,1019.53
2018-12-12T10:58:24.198Z,1019.53
2018-12-12T10:59:24.213Z,1019.51
2018-12-12T11:00:24.179Z,1019.52
2018-12-12T11:01:24.202Z,1019.53
2018-12-12T11:02:24.169Z,1019.50
2018-12-12T11:03:24.150Z,1019.48
2018-12-12T11:04:24.133Z,1019.49
2018-12-12T11:05:24.129Z,1019.51
2018-12-12T11:06:24.139Z,1019.47
2018-12-12T11:07:24.113Z,1019.47
2018-12-12T11:08:24.101Z,1019.48
2018-12-12T11:09:24.118Z,1019.46
2018-12-12T11:10:24.067Z,1019.45
2018-12-12T11:11:24.094Z,1019.45
2018-12-12T11:12:24.047Z,1019.45
2018-12-12T11:13:24.037Z,1019.43
2018-12-12T11:14:24.066Z,1019.40
2018-12-12T11:15:24.016Z,1019.43
2018-12-12T11:16:24.014Z,1019.47
2018-12-12T11:17:23.991Z,1019.46
2018-12-12T11:18:24.061Z,1019.42
2018-12-12T11:19:24.050Z,1019.39
2018-12-12T11:20:23.961Z,1019.41
2018-12-12T11:21:23.947Z,1019.43
2018-12-12T11:22:23.969Z,1019.45
2018-12-12T11:23:23.937Z,1019.44
2018-12-12T11:24:23.940Z,1019.46
2018-12-12T11:25:23.905Z,1019.41
2018-12-12T11:26:23.902Z,1019.43
2018-12-12T11:27:23.954Z,1019.40
2018-12-12T11:28:23.874Z,1019.42
2018-12-12T11:29:23.861Z,1019.40
2018-12-12T11:30:23.873Z,1019.37
2018-12-12T11:31:23.852Z,1019.40
2018-12-12T11:32:23.830Z,1019.38
2018-12-12T11:33:23.816Z,1019.43
2018-12-12T11:34:23.808Z,1019.44
2018-12-12T11:35:23.829Z,1019.41
2018-12-12T11:36:23.784Z,1019.39
2018-12-12T11:37:23.776Z,1019.40
2018-12-12T11:38:23.758Z,1019.44
2018-12-12T11:39:23.758Z,1019.42
2018-12-12T11:40:23.767Z,1019.42
2018-12-12T11:41:23.732Z,1019.43
2018-12-12T11:42:23.743Z,1019.44
2018-12-12T11:43:23.718Z,1019.41
2018-12-12T11:44:23.697Z,1019.43
2018-12-12T11:45:23.683Z,1019.36
2018-12-12T11:46:23.718Z,1019.40
2018-12-12T11:47:23.669Z,1019.40
2018-12-12T11:48:23.669Z,1019.40
2018-12-12T11:49:23.641Z,1019.39
2018-12-12T11:50:23.632Z,1019.43
2018-12-12T11:51:23.657Z,1019.42
2018-12-12T11:52:23.616Z,1019.41
2018-12-12T11:53:23.613Z,1019.38
2018-12-12T11:54:23.585Z,1019.40
2018-12-12T11:55:23.577Z,1019.38
2018-12-12T11:56:23.588Z,1019.37
2018-12-12T11:57:23.666Z,1019.37
2018-12-12T11:58:23.543Z,1019.36
2018-12-12T11:59:23.553Z,1019.33
2018-12-12T12:00:23.524Z,1019.34
2018-12-12T12:01:23.532Z,1019.29
2018-12-12T12:02:23.500Z,1019.28
2018-12-12T12:03:23.501Z,1019.32
2018-12-12T12:04:23.481Z,1019.24
2018-12-12T12:05:23.472Z,1019.23